createdAt,value
2022-12-23T00:01:03.577Z,5.47
2022-12-23T00:03:31.502Z,8.60
2022-12-23T00:05:59.331Z,10.73
2022-12-23T00:08:27.162Z,4.28
2022-12-23T00:10:56.460Z,5.38
2022-12-23T00:13:42.155Z,4.32
2022-12-23T00:16:12.667Z,6.28
2022-12-23T00:18:40.600Z,4.75
2022-12-23T00:21:10.875Z,6.68
2022-12-23T00:23:40.570Z,8.15
2022-12-23T00:26:08.172Z,7.63
2022-12-23T00:28:35.176Z,9.57
2022-12-23T00:31:05.009Z,6.88
2022-12-23T00:33:38.507Z,4.20
2022-12-23T00:36:17.934Z,9.65
2022-12-23T00:39:04.189Z,6.18
2022-12-23T00:41:49.447Z,8.25
2022-12-23T00:44:16.450Z,9.48
2022-12-23T00:46:43.383Z,7.40
2022-12-23T00:49:34.358Z,6.95
2022-12-23T00:52:02.419Z,9.45
2022-12-23T00:54:29.407Z,6.65
2022-12-23T00:56:56.339Z,9.48
2022-12-23T00:59:23.427Z,10.73
2022-12-23T01:02:09.192Z,9.20
2022-12-23T01:04:55.028Z,9.68
2022-12-23T01:07:23.063Z,5.38
2022-12-23T01:09:50.273Z,9.68
2022-12-23T01:12:17.386Z,6.18
2022-12-23T01:14:44.395Z,6.07
2022-12-23T01:17:11.646Z,7.60
2022-12-23T01:19:38.709Z,4.90
2022-12-23T01:22:05.708Z,5.70
2022-12-23T01:24:32.969Z,8.55
2022-12-23T01:27:00.216Z,8.45
2022-12-23T01:29:27.339Z,7.35
2022-12-23T01:31:54.404Z,8.15
2022-12-23T01:34:21.538Z,6.50
2022-12-23T01:36:48.445Z,10.38
2022-12-23T01:39:15.419Z,10.40
2022-12-23T01:42:00.912Z,6.60
2022-12-23T01:44:51.932Z,10.00
2022-12-23T01:47:21.928Z,6.53
2022-12-23T01:49:53.093Z,7.80
2022-12-23T01:52:20.461Z,5.63
2022-12-23T01:54:47.792Z,7.32
2022-12-23T01:57:15.002Z,6.07
2022-12-23T02:00:01.711Z,9.00
2022-12-23T02:02:53.216Z,7.20
2022-12-23T02:05:21.142Z,6.20
2022-12-23T02:08:07.212Z,6.28
2022-12-23T02:10:52.212Z,10.10
2022-12-23T02:14:01.555Z,9.65
2022-12-23T02:16:33.254Z,5.93
2022-12-23T02:19:12.351Z,7.85
2022-12-23T02:22:01.128Z,5.88
2022-12-23T02:25:06.495Z,5.85
2022-12-23T02:27:50.652Z,6.72
2022-12-23T02:30:25.922Z,7.40
2022-12-23T02:33:14.187Z,8.23
2022-12-23T02:35:59.578Z,3.95
2022-12-23T02:38:42.485Z,5.07
2022-12-23T02:41:44.638Z,6.32
2022-12-23T02:44:32.992Z,4.78
2022-12-23T02:47:14.568Z,4.65
2022-12-23T02:49:47.353Z,6.30
2022-12-23T02:52:17.183Z,6.13
2022-12-23T02:54:52.615Z,5.93
2022-12-23T02:57:29.441Z,6.20
2022-12-23T02:59:58.820Z,4.15
2022-12-23T03:02:27.952Z,4.00
2022-12-23T03:04:54.940Z,2.97
2022-12-23T03:07:31.453Z,4.00
2022-12-23T03:10:12.300Z,3.72
2022-12-23T03:13:26.758Z,4.55
2022-12-23T03:16:02.545Z,4.93
2022-12-23T03:18:44.231Z,3.67
2022-12-23T03:21:22.466Z,3.25
2022-12-23T03:24:21.899Z,5.80
2022-12-23T03:26:55.581Z,4.32
2022-12-23T03:30:01.771Z,3.88
2022-12-23T03:32:33.335Z,4.50
2022-12-23T03:35:02.478Z,5.95
2022-12-23T03:37:33.041Z,3.33
2022-12-23T03:40:12.065Z,3.80
2022-12-23T03:42:42.559Z,4.78
2022-12-23T03:48:08.016Z,4.93
2022-12-23T03:50:36.506Z,3.42
2022-12-23T03:53:12.571Z,4.15
2022-12-23T03:55:50.810Z,4.03
2022-12-23T03:58:36.742Z,3.03
2022-12-23T04:01:37.600Z,4.70
2022-12-23T04:04:15.053Z,4.63
2022-12-23T04:07:05.137Z,6.78
2022-12-23T04:09:32.269Z,5.97
2022-12-23T04:11:59.465Z,3.08
2022-12-23T04:14:26.383Z,2.20
2022-12-23T04:16:56.287Z,6.53
2022-12-23T04:19:23.232Z,3.78
2022-12-23T04:21:50.225Z,7.15
2022-12-23T04:24:17.229Z,4.45
2022-12-23T04:26:44.156Z,2.38
2022-12-23T04:29:11.099Z,5.07
2022-12-23T04:31:38.218Z,4.32
2022-12-23T04:34:05.225Z,4.57
2022-12-23T04:36:32.172Z,5.53
2022-12-23T04:38:59.084Z,9.07
2022-12-23T04:41:26.032Z,3.83
2022-12-23T04:43:53.566Z,4.03
2022-12-23T04:46:20.791Z,4.90
2022-12-23T04:48:47.839Z,5.57
2022-12-23T04:51:14.865Z,4.68
2022-12-23T04:53:41.743Z,5.93
2022-12-23T04:56:08.791Z,3.88
2022-12-23T04:58:35.755Z,5.03
2022-12-23T05:01:08.567Z,3.88
2022-12-23T05:03:36.582Z,7.38
2022-12-23T05:06:04.136Z,4.70
2022-12-23T05:08:31.384Z,4.22
2022-12-23T05:10:58.412Z,2.40
2022-12-23T05:13:25.503Z,3.38
2022-12-23T05:15:54.264Z,3.63
2022-12-23T05:18:22.530Z,5.07
2022-12-23T05:20:50.811Z,4.18
2022-12-23T05:23:17.955Z,4.00
2022-12-23T05:25:52.790Z,2.50
2022-12-23T05:28:21.312Z,6.60
2022-12-23T05:30:48.445Z,3.78
2022-12-23T05:33:15.448Z,3.03
2022-12-23T05:35:42.396Z,4.20
2022-12-23T05:38:09.318Z,3.83
2022-12-23T05:40:36.202Z,5.32
2022-12-23T05:43:03.283Z,6.95
2022-12-23T05:45:30.362Z,4.65
2022-12-23T05:47:57.315Z,6.82
2022-12-23T05:50:24.305Z,4.38
2022-12-23T05:52:51.341Z,3.88
2022-12-23T05:55:18.531Z,5.18
2022-12-23T05:57:45.431Z,5.60
2022-12-23T06:00:12.867Z,2.67
2022-12-23T06:02:40.524Z,3.67
2022-12-23T06:05:08.231Z,3.33
2022-12-23T06:07:35.233Z,5.22
2022-12-23T06:10:02.332Z,6.45
2022-12-23T06:12:29.234Z,5.60
2022-12-23T06:14:56.242Z,7.10
2022-12-23T06:17:23.334Z,6.25
2022-12-23T06:19:50.534Z,7.72
2022-12-23T06:22:17.933Z,6.45
2022-12-23T06:24:45.178Z,5.72
2022-12-23T06:27:12.131Z,6.50
2022-12-23T06:29:39.082Z,8.10
2022-12-23T06:32:06.313Z,6.10
2022-12-23T06:34:33.363Z,4.72
2022-12-23T06:37:00.522Z,6.22
2022-12-23T06:39:27.820Z,5.72
2022-12-23T06:41:54.767Z,8.68
2022-12-23T06:44:21.856Z,8.68
2022-12-23T06:46:48.743Z,6.53
2022-12-23T06:49:15.701Z,5.68
2022-12-23T06:51:42.641Z,7.25
2022-12-23T06:54:11.950Z,4.25
2022-12-23T06:56:39.196Z,6.47
2022-12-23T06:59:06.165Z,6.25
2022-12-23T07:01:33.235Z,7.78
2022-12-23T07:04:00.392Z,8.95
2022-12-23T07:06:27.331Z,7.90
2022-12-23T07:08:54.252Z,8.18
2022-12-23T07:11:21.303Z,4.55
2022-12-23T07:13:48.672Z,4.93
2022-12-23T07:16:15.703Z,11.80
2022-12-23T07:18:42.682Z,6.45
2022-12-23T07:21:19.795Z,9.65
2022-12-23T07:23:48.508Z,5.88
2022-12-23T07:26:15.442Z,5.35
2022-12-23T07:28:47.797Z,6.30
2022-12-23T07:31:15.116Z,8.80
2022-12-23T07:33:42.554Z,5.55
2022-12-23T07:36:09.797Z,8.00
2022-12-23T07:38:36.790Z,6.45
2022-12-23T07:41:03.851Z,5.93
2022-12-23T07:43:30.891Z,5.78
2022-12-23T07:46:00.664Z,4.53
2022-12-23T07:48:28.147Z,8.15
2022-12-23T07:51:03.646Z,5.90
2022-12-23T07:53:30.852Z,4.13
2022-12-23T07:55:57.816Z,5.00
2022-12-23T07:58:25.200Z,5.75
2022-12-23T08:00:58.754Z,4.57
2022-12-23T08:03:25.838Z,5.90
2022-12-23T08:06:12.661Z,5.35
2022-12-23T08:08:41.750Z,6.50
2022-12-23T08:11:10.547Z,11.45
2022-12-23T08:13:39.983Z,6.20
2022-12-23T08:16:08.732Z,6.35
2022-12-23T08:18:38.033Z,3.13
2022-12-23T08:21:17.560Z,5.28
2022-12-23T08:23:45.006Z,5.75
2022-12-23T08:26:17.037Z,6.65
2022-12-23T08:28:45.449Z,8.88
2022-12-23T08:31:17.228Z,5.30
2022-12-23T08:33:46.692Z,7.53
2022-12-23T08:36:23.009Z,7.20
2022-12-23T08:38:54.039Z,7.03
2022-12-23T08:41:24.723Z,7.35
2022-12-23T08:43:52.719Z,4.13
2022-12-23T08:46:20.421Z,8.48
2022-12-23T08:48:49.803Z,5.30
2022-12-23T08:51:19.199Z,5.13
2022-12-23T08:53:47.627Z,5.25
2022-12-23T08:56:25.965Z,8.60
2022-12-23T08:58:54.777Z,6.93
2022-12-23T09:01:24.521Z,3.38
2022-12-23T09:03:52.192Z,6.60
2022-12-23T09:06:43.246Z,7.40
2022-12-23T09:09:12.165Z,7.47
2022-12-23T09:11:39.429Z,6.22
2022-12-23T09:14:08.662Z,4.18
2022-12-23T09:16:36.524Z,4.45
2022-12-23T09:19:04.345Z,3.38
2022-12-23T09:21:31.366Z,4.70
2022-12-23T09:23:58.335Z,3.13
2022-12-23T09:26:28.066Z,8.68
2022-12-23T09:28:55.896Z,4.90
2022-12-23T09:31:23.496Z,3.97
2022-12-23T09:33:52.346Z,6.20
2022-12-23T09:36:21.399Z,4.80
2022-12-23T09:38:53.168Z,3.88
2022-12-23T09:42:08.630Z,7.30
2022-12-23T09:44:54.428Z,7.35
2022-12-23T09:47:25.440Z,5.30
2022-12-23T09:50:00.643Z,5.40
2022-12-23T09:52:57.081Z,5.82
2022-12-23T09:55:28.828Z,6.63
2022-12-23T09:58:08.952Z,5.93
2022-12-23T10:00:42.246Z,5.28
2022-12-23T10:03:44.518Z,4.70
2022-12-23T10:06:20.152Z,4.65
2022-12-23T10:08:53.163Z,3.60
2022-12-23T10:11:27.938Z,5.05
2022-12-23T10:14:20.463Z,4.70
2022-12-23T10:17:13.662Z,3.30
2022-12-23T10:19:47.009Z,3.47
2022-12-23T10:22:35.787Z,4.03
2022-12-23T10:25:07.729Z,3.58
2022-12-23T10:27:42.679Z,3.72
2022-12-23T10:30:53.524Z,4.50
2022-12-23T10:33:16.613Z,3.78
2022-12-23T10:35:53.298Z,4.47
2022-12-23T10:38:46.056Z,3.47
2022-12-23T10:41:47.854Z,3.28
2022-12-23T10:44:26.521Z,2.88
2022-12-23T10:47:28.163Z,2.67
2022-12-23T10:50:16.175Z,2.28
2022-12-23T10:52:45.138Z,2.42
2022-12-23T10:55:38.901Z,2.15
2022-12-23T10:58:18.544Z,2.50
2022-12-23T11:00:52.200Z,5.97
2022-12-23T11:03:26.376Z,2.40
2022-12-23T11:05:54.751Z,4.65
2022-12-23T11:08:23.172Z,2.83
2022-12-23T11:10:50.573Z,2.50
2022-12-23T11:13:35.066Z,2.95
2022-12-23T11:16:19.569Z,6.07
2022-12-23T11:18:54.598Z,6.05
2022-12-23T11:21:21.843Z,4.55
2022-12-23T11:24:15.515Z,5.28
2022-12-23T11:26:44.250Z,2.83
2022-12-23T11:29:19.632Z,5.13
2022-12-23T11:31:46.810Z,6.60
2022-12-23T11:34:19.857Z,5.13
2022-12-23T11:37:06.985Z,3.67
2022-12-23T11:39:36.704Z,3.78
2022-12-23T11:42:15.860Z,3.70
2022-12-23T11:44:51.729Z,4.03
2022-12-23T11:47:26.097Z,4.53
2022-12-23T11:49:59.196Z,3.50
2022-12-23T11:52:29.063Z,3.88
2022-12-23T11:54:58.404Z,1.73
2022-12-23T11:57:36.752Z,4.88
2022-12-23T12:00:06.442Z,3.45
2022-12-23T12:02:43.338Z,4.72
2022-12-23T12:05:32.058Z,3.00
2022-12-23T12:08:01.596Z,3.40
2022-12-23T12:10:32.709Z,4.28
2022-12-23T12:13:06.130Z,4.20
2022-12-23T12:15:36.066Z,3.80
2022-12-23T12:18:08.833Z,2.25
2022-12-23T12:20:53.088Z,2.50
2022-12-23T12:23:39.795Z,1.83
2022-12-23T12:26:13.891Z,3.70
2022-12-23T12:28:47.138Z,1.80
2022-12-23T12:31:23.145Z,1.63
2022-12-23T12:34:12.960Z,2.10
2022-12-23T12:37:04.637Z,1.45
2022-12-23T12:39:39.647Z,1.67
2022-12-23T12:42:32.681Z,1.60
2022-12-23T12:45:12.451Z,2.97
2022-12-23T12:47:57.067Z,2.17
2022-12-23T12:50:33.690Z,1.90
2022-12-23T12:53:13.015Z,1.33
2022-12-23T12:55:48.242Z,1.60
2022-12-23T12:58:25.060Z,2.03
2022-12-23T13:01:12.274Z,2.15
2022-12-23T13:04:11.376Z,1.80
2022-12-23T13:07:25.393Z,2.28
2022-12-23T13:10:16.831Z,1.92
2022-12-23T13:13:02.561Z,2.10
2022-12-23T13:15:35.617Z,1.83
2022-12-23T13:18:25.486Z,1.98
2022-12-23T13:21:36.381Z,2.20
2022-12-23T13:24:06.296Z,1.23
2022-12-23T13:27:13.622Z,1.88
2022-12-23T13:30:05.652Z,1.25
2022-12-23T13:32:53.962Z,1.90
2022-12-23T13:35:35.375Z,1.08
2022-12-23T13:38:26.405Z,1.40
2022-12-23T13:41:05.916Z,0.85
2022-12-23T13:43:54.572Z,1.30
2022-12-23T13:46:39.413Z,3.10
2022-12-23T13:49:40.128Z,1.17
2022-12-23T13:52:14.378Z,2.85
2022-12-23T13:55:08.992Z,1.08
2022-12-23T13:57:35.853Z,1.30
2022-12-23T14:00:19.242Z,1.42
2022-12-23T14:02:49.655Z,1.60
2022-12-23T14:05:41.128Z,2.05
2022-12-23T14:08:20.186Z,1.00
2022-12-23T14:10:56.774Z,1.75
2022-12-23T14:14:04.376Z,2.35
2022-12-23T14:16:40.062Z,1.45
2022-12-23T14:19:17.598Z,2.08
2022-12-23T14:22:11.577Z,0.98
2022-12-23T14:24:59.934Z,2.40
2022-12-23T14:27:33.868Z,1.25
2022-12-23T14:30:22.537Z,1.20
2022-12-23T14:32:57.348Z,1.65
2022-12-23T14:35:44.171Z,2.25
2022-12-23T14:38:22.607Z,1.15
2022-12-23T14:41:18.027Z,1.23
2022-12-23T14:43:45.227Z,2.75
2022-12-23T14:46:50.236Z,1.98
2022-12-23T14:49:41.588Z,2.08
2022-12-23T14:52:44.280Z,3.85
2022-12-23T14:55:32.562Z,2.08
2022-12-23T14:58:07.852Z,3.05
2022-12-23T15:00:56.481Z,1.52
2022-12-23T15:03:23.712Z,2.88
2022-12-23T15:05:51.305Z,3.72
2022-12-23T15:08:43.046Z,2.10
2022-12-23T15:11:28.356Z,3.75
2022-12-23T15:13:58.133Z,3.97
2022-12-23T15:16:37.467Z,2.28
2022-12-23T15:19:21.527Z,4.25
2022-12-23T15:21:58.204Z,4.50
2022-12-23T15:24:27.378Z,4.78
2022-12-23T15:27:24.668Z,2.55
2022-12-23T15:29:47.581Z,4.30
2022-12-23T15:32:14.705Z,7.20
2022-12-23T15:34:42.075Z,5.75
2022-12-23T15:37:13.001Z,2.83
2022-12-23T15:39:43.797Z,3.05
2022-12-23T15:42:38.711Z,3.75
2022-12-23T15:45:47.727Z,3.25
2022-12-23T15:48:32.553Z,4.03
2022-12-23T15:51:08.235Z,7.38
2022-12-23T15:53:38.889Z,7.75
2022-12-23T15:56:10.066Z,4.82
2022-12-23T15:58:40.554Z,8.43
2022-12-23T16:01:13.303Z,6.97
2022-12-23T16:03:44.948Z,10.90
2022-12-23T16:06:17.524Z,6.18
2022-12-23T16:08:45.255Z,8.98
2022-12-23T16:11:20.838Z,6.85
2022-12-23T16:13:58.373Z,7.95
2022-12-23T16:16:43.081Z,6.25
2022-12-23T16:19:47.109Z,7.03
2022-12-23T16:22:43.619Z,8.05
2022-12-23T16:25:19.905Z,9.38
2022-12-23T16:27:54.572Z,7.13
2022-12-23T16:30:27.561Z,7.97
2022-12-23T16:32:57.665Z,10.52
2022-12-23T16:35:36.492Z,7.97
2022-12-23T16:38:22.097Z,11.60
2022-12-23T16:40:54.415Z,14.75
2022-12-23T16:43:23.567Z,10.05
2022-12-23T16:45:56.556Z,11.23
2022-12-23T16:48:34.415Z,10.55
2022-12-23T16:51:03.743Z,7.10
2022-12-23T16:53:30.673Z,9.63
2022-12-23T16:56:00.940Z,10.68
2022-12-23T16:58:29.438Z,7.47
2022-12-23T17:00:57.111Z,9.80
2022-12-23T17:03:24.141Z,12.77
2022-12-23T17:05:51.182Z,18.65
2022-12-23T17:08:18.261Z,10.18
2022-12-23T17:10:45.854Z,10.23
2022-12-23T17:13:16.315Z,6.50
2022-12-23T17:15:43.287Z,9.13
2022-12-23T17:18:15.964Z,7.88
2022-12-23T17:20:47.951Z,7.93
2022-12-23T17:23:31.028Z,9.23
2022-12-23T17:25:58.548Z,7.80
2022-12-23T17:28:31.703Z,9.80
2022-12-23T17:30:59.712Z,10.77
2022-12-23T17:33:29.815Z,11.68
2022-12-23T17:35:57.022Z,8.15
2022-12-23T17:38:24.605Z,21.88
2022-12-23T17:40:51.795Z,9.18
2022-12-23T17:43:19.129Z,16.48
2022-12-23T17:45:47.292Z,7.55
2022-12-23T17:48:20.813Z,16.83
2022-12-23T17:50:49.630Z,11.80
2022-12-23T17:53:20.155Z,10.00
2022-12-23T17:55:47.475Z,11.32
2022-12-23T17:58:15.477Z,10.02
2022-12-23T18:00:42.477Z,8.18
2022-12-23T18:03:22.743Z,10.90
2022-12-23T18:05:54.218Z,11.80
2022-12-23T18:08:26.478Z,8.70
2022-12-23T18:10:53.455Z,9.23
2022-12-23T18:13:21.199Z,13.73
2022-12-23T18:15:48.213Z,12.18
2022-12-23T18:18:24.134Z,8.30
2022-12-23T18:20:56.486Z,14.15
2022-12-23T18:23:34.183Z,12.15
2022-12-23T18:26:01.227Z,6.28
2022-12-23T18:28:28.212Z,14.80
2022-12-23T18:30:57.108Z,14.13
2022-12-23T18:33:28.635Z,10.27
2022-12-23T18:35:56.124Z,7.72
2022-12-23T18:38:23.380Z,7.68
2022-12-23T18:40:53.939Z,12.75
2022-12-23T18:43:24.216Z,12.98
2022-12-23T18:45:53.445Z,10.45
2022-12-23T18:48:21.839Z,8.65
2022-12-23T18:50:49.047Z,13.30
2022-12-23T18:53:23.745Z,10.52
2022-12-23T18:55:52.887Z,9.35
2022-12-23T18:58:20.699Z,11.52
2022-12-23T19:00:49.432Z,13.63
2022-12-23T19:03:30.519Z,15.25
2022-12-23T19:06:06.382Z,11.18
2022-12-23T19:08:35.225Z,11.68
2022-12-23T19:11:08.736Z,7.63
2022-12-23T19:13:35.728Z,11.63
2022-12-23T19:16:02.798Z,8.63
2022-12-23T19:18:29.834Z,10.70
2022-12-23T19:20:56.829Z,10.80
2022-12-23T19:23:26.488Z,11.38
2022-12-23T19:25:55.472Z,14.13
2022-12-23T19:28:22.848Z,15.30
2022-12-23T19:30:49.869Z,13.68
2022-12-23T19:33:16.928Z,9.93
2022-12-23T19:35:44.422Z,12.05
2022-12-23T19:38:12.423Z,13.93
2022-12-23T19:40:40.139Z,9.07
2022-12-23T19:43:07.749Z,10.23
2022-12-23T19:45:34.720Z,11.85
2022-12-23T19:48:01.745Z,10.52
2022-12-23T19:50:28.764Z,10.23
2022-12-23T19:52:56.493Z,12.27
2022-12-23T19:55:24.246Z,9.15
2022-12-23T19:57:52.271Z,13.63
2022-12-23T20:00:19.386Z,10.98
2022-12-23T20:02:46.570Z,10.43
2022-12-23T20:05:13.559Z,11.50
2022-12-23T20:07:40.552Z,10.57
2022-12-23T20:10:08.416Z,14.00
2022-12-23T20:12:35.590Z,12.88
2022-12-23T20:15:02.588Z,14.40
2022-12-23T20:17:29.542Z,11.75
2022-12-23T20:19:56.707Z,11.32
2022-12-23T20:22:23.680Z,8.40
2022-12-23T20:24:51.016Z,12.30
2022-12-23T20:27:22.638Z,13.55
2022-12-23T20:29:53.155Z,14.88
2022-12-23T20:32:20.060Z,11.60
2022-12-23T20:34:49.012Z,8.75
2022-12-23T20:37:16.203Z,21.88
2022-12-23T20:39:43.213Z,16.92
2022-12-23T20:42:10.193Z,18.52
2022-12-23T20:44:37.814Z,15.50
2022-12-23T20:47:08.066Z,18.17
2022-12-23T20:49:35.124Z,15.50
2022-12-23T20:52:02.502Z,16.35
2022-12-23T20:54:33.134Z,20.13
2022-12-23T20:57:02.184Z,8.40
2022-12-23T20:59:29.517Z,10.50
2022-12-23T21:01:59.271Z,10.23
2022-12-23T21:04:26.812Z,12.27
2022-12-23T21:06:53.798Z,14.65
2022-12-23T21:09:20.777Z,16.05
2022-12-23T21:11:48.448Z,18.60
2022-12-23T21:14:15.864Z,18.10
2022-12-23T21:16:43.752Z,15.13
2022-12-23T21:19:18.403Z,16.20
2022-12-23T21:21:46.179Z,13.00
2022-12-23T21:24:14.192Z,15.63
2022-12-23T21:26:41.645Z,15.23
2022-12-23T21:29:10.451Z,11.13
2022-12-23T21:31:39.962Z,13.75
2022-12-23T21:34:07.966Z,16.75
2022-12-23T21:36:38.739Z,14.52
2022-12-23T21:39:07.241Z,15.63
2022-12-23T21:41:41.112Z,21.00
2022-12-23T21:44:08.754Z,14.50
2022-12-23T21:46:35.760Z,23.30
2022-12-23T21:49:03.215Z,11.15
2022-12-23T21:51:41.943Z,13.55
2022-12-23T21:54:11.051Z,13.07
2022-12-23T21:56:38.996Z,14.07
2022-12-23T21:59:10.551Z,12.07
2022-12-23T22:01:37.573Z,18.30
2022-12-23T22:04:05.365Z,15.60
2022-12-23T22:06:38.236Z,14.68
2022-12-23T22:09:07.129Z,17.65
2022-12-23T22:11:36.351Z,21.05
2022-12-23T22:14:06.364Z,16.70
2022-12-23T22:16:34.664Z,12.20
2022-12-23T22:19:02.359Z,16.35
2022-12-23T22:21:31.163Z,11.18
2022-12-23T22:23:58.459Z,13.82
2022-12-23T22:26:28.359Z,10.30
2022-12-23T22:28:57.773Z,12.98
2022-12-23T22:31:36.704Z,13.75
2022-12-23T22:34:04.896Z,17.88
2022-12-23T22:36:32.050Z,19.50
2022-12-23T22:39:01.000Z,11.25
2022-12-23T22:41:29.754Z,11.98
2022-12-23T22:43:57.803Z,12.18
2022-12-23T22:46:25.140Z,15.43
2022-12-23T22:48:53.300Z,10.00
2022-12-23T22:51:24.081Z,17.70
2022-12-23T22:53:51.115Z,11.68
2022-12-23T22:56:20.754Z,11.32
2022-12-23T22:58:48.230Z,15.20
2022-12-23T23:01:25.018Z,14.63
2022-12-23T23:03:57.295Z,11.68
2022-12-23T23:06:37.811Z,12.00
2022-12-23T23:09:13.474Z,11.70
2022-12-23T23:11:40.802Z,14.30
2022-12-23T23:14:07.956Z,17.48
2022-12-23T23:16:34.973Z,15.73
2022-12-23T23:19:04.113Z,12.20
2022-12-23T23:21:31.131Z,14.70
2022-12-23T23:23:58.328Z,12.63
2022-12-23T23:26:27.275Z,14.70
2022-12-23T23:28:55.577Z,16.73
2022-12-23T23:34:09.901Z,9.90
2022-12-23T23:36:36.915Z,14.88
2022-12-23T23:39:04.030Z,13.25
2022-12-23T23:41:30.976Z,11.93
2022-12-23T23:43:57.979Z,19.75
2022-12-23T23:46:25.041Z,19.08
2022-12-23T23:48:52.053Z,12.70
2022-12-23T23:51:19.305Z,15.95
2022-12-23T23:53:46.219Z,16.58
2022-12-23T23:56:13.287Z,14.10
2022-12-23T23:58:40.282Z,14.52
